Latest Weather Observations for Pallamana

IDS60801

Issued at 7:01 am CST Thursday 30 June 2016 (issued every 30 minutes, with the page automatically refreshed every 10 minutes)

About weather observations | Map of weather stations | Latest weather observations for SA | Other Formats
Station Details ID: 024584 Name: PALLAMANA AERODROME Lat: -35.06 Lon: 139.23 Height: 45.0 m
Data from the previous 72 hours. | See also: Recent months at Pallamana
Date/Time
CST
Temp
°C
App
Temp
°C
Dew
Point
°C
Rel
Hum
%
Delta-T
°C
Wind Press
QNH
hPa
Press
MSL
hPa
Rain since
9am
mm
Dir  Spd
km/h
Gust
km/h
Spd
kts
Gust
kts
30/07:00am 11.1 7.2 6.9 75 2.0 N 17 22 9 12 1010.9 1011.0 0.0
30/06:30am 11.4 7.4 6.5 72 2.3 NW 17 26 9 14 1010.8 1010.9 0.0
30/06:00am 11.3 5.5 6.4 72 2.3 NNW 26 35 14 19 1010.6 1010.7 0.0
30/05:30am 11.6 5.1 6.3 70 2.5 NW 30 43 16 23 1010.6 1010.7 0.0
30/05:00am 11.6 6.1 5.8 67 2.7 NNW 24 39 13 21 1010.9 1011.0 0.0
30/04:30am 10.0 5.5 5.9 75 1.9 NNW 19 24 10 13 1010.8 1010.9 0.0
30/04:00am 10.9 4.6 5.7 70 2.4 NNW 28 37 15 20 1011.3 1011.3 0.0
30/03:30am 11.6 5.3 5.8 67 2.7 N 28 35 15 19 1011.9 1011.9 0.0
30/03:00am 11.9 4.8 5.4 64 3.0 N 32 39 17 21 1012.2 1012.2 0.0
30/02:43am 12.7 6.3 5.2 60 3.5 N 28 48 15 26 1012.3 1012.3 0.0
30/02:30am 12.8 6.7 4.8 58 3.7 N 26 37 14 20 1013.1 1013.1 0.0
30/02:15am 12.6 6.1 4.5 58 3.7 NNW 28 46 15 25 1013.1 1013.1 0.0
30/02:00am 12.5 5.9 4.1 56 3.8 NNW 28 41 15 22 1013.5 1013.5 0.0
30/01:30am 10.7 4.9 4.2 64 2.9 N 24 33 13 18 1013.5 1013.5 0.0
30/01:00am 11.8 5.9 4.0 59 3.5 N 24 35 13 19 1013.9 1013.9 0.0
30/12:30am 11.7 6.8 3.9 59 3.5 N 19 24 10 13 1014.6 1014.6 0.0
30/12:00am 11.6 6.1 4.0 59 3.4 N 22 33 12 18 1014.9 1014.9 0.0
 
Date/Time
CST
Temp
°C
App
Temp
°C
Dew
Point
°C
Rel
Hum
%
Delta-T
°C
Wind Press
QNH
hPa
Press
MSL
hPa
Rain since
9am
mm
Dir  Spd
km/h
Gust
km/h
Spd
kts
Gust
kts
29/11:30pm 12.1 4.1 3.6 56 3.8 NNW 35 46 19 25 1015.1 1015.1 0.0
29/11:00pm 12.0 4.4 3.7 57 3.7 N 33 43 18 23 1015.2 1015.2 0.0
29/10:30pm 10.8 5.3 4.1 63 3.0 N 22 28 12 15 1015.8 1015.8 0.0
29/10:00pm 10.7 4.5 4.2 64 2.9 N 26 32 14 17 1016.0 1016.0 0.0
29/09:30pm 10.9 4.3 4.2 63 3.0 N 28 33 15 18 1016.2 1016.2 0.0
29/09:00pm 10.6 4.0 4.1 64 2.9 N 28 35 15 19 1016.7 1016.7 0.0
29/08:30pm 9.0 4.0 4.5 73 2.0 N 20 26 11 14 1017.1 1017.1 0.0
29/08:00pm 6.8 2.7 4.2 83 1.1 N 15 17 8 9 1017.4 1017.4 0.0
29/07:30pm 7.2 2.4 4.4 82 1.2 NNW 19 20 10 11 1018.0 1018.0 0.0
29/07:00pm 6.5 2.4 4.2 85 1.0 N 15 17 8 9 1018.1 1018.1 0.0
29/06:30pm 7.6 3.9 4.6 81 1.3 N 13 15 7 8 1018.3 1018.3 0.0
29/06:00pm 10.2 5.4 4.9 69 2.4 NNW 19 22 10 12 1018.4 1018.4 0.0
29/05:30pm 10.8 6.1 5.1 68 2.6 N 19 26 10 14 1018.5 1018.5 0.0
29/05:00pm 11.9 5.4 4.9 62 3.2 NNW 28 35 15 19 1018.4 1018.4 0.0
29/04:30pm 12.4 6.3 4.8 60 3.5 NNW 26 35 14 19 1018.5 1018.5 0.0
29/04:00pm 13.1 5.4 3.2 51 4.4 N 33 48 18 26 1018.7 1018.7 0.0
29/03:30pm 14.3 6.1 2.6 45 5.2 N 35 46 19 25 1018.9 1018.9 0.0
29/03:00pm 14.5 4.1 2.3 43 5.4 N 46 57 25 31 1019.2 1019.2 0.0
29/02:43pm 13.9 4.0 1.7 43 5.3 N 43 61 23 33 1019.4 1019.4 0.0
29/02:30pm 13.5 4.9 2.6 47 4.8 N 37 48 20 26 1019.4 1019.4 0.0
29/02:00pm 13.9 5.8 3.2 48 4.8 N 35 48 19 26 1019.8 1019.8 0.0
29/01:30pm 13.6 5.9 3.6 51 4.5 N 33 46 18 25 1020.5 1020.5 0.0
29/01:00pm 13.4 6.4 3.9 52 4.3 N 30 37 16 20 1021.3 1021.4 0.0
29/12:30pm 13.5 5.5 3.7 51 4.4 NNW 35 46 19 25 1022.1 1022.2 0.0
29/12:00pm 14.0 6.0 3.9 50 4.6 N 35 46 19 25 1022.7 1022.8 0.0
29/11:30am 14.0 6.5 3.6 49 4.7 NNW 32 44 17 24 1023.4 1023.5 0.0
29/11:00am 12.1 6.5 5.6 64 3.0 NNE 24 30 13 16 1024.0 1024.1 0.0
29/10:30am 10.5 4.9 5.5 71 2.3 N 24 28 13 15 1024.6 1024.7 0.0
29/10:00am 9.4 5.1 5.2 75 1.9 NNE 17 22 9 12 1025.1 1025.2 0.0
29/09:30am 7.4 3.4 4.9 84 1.1 NNE 15 19 8 10 1025.2 1025.3 0.0
29/09:00am 5.7 2.4 4.5 92 0.5 N 11 15 6 8 1025.4 1025.5 0.2
29/08:30am 4.4 1.8 3.4 93 0.4 N 6 9 3 5 1025.5 1025.6 0.2
29/08:00am 3.2 0.3 2.4 94 0.3 NNW 7 9 4 5 1025.6 1025.7 0.2
29/07:30am 2.5 -0.5 1.7 94 0.3 NNW 7 9 4 5 1025.5 1025.6 0.2
29/07:00am 2.6 -0.2 1.8 94 0.3 NNW 6 7 3 4 1025.3 1025.4 0.2
29/06:30am 1.8 -1.1 1.5 98 0.1 NNW 6 7 3 4 1025.3 1025.4 0.0
29/06:00am 3.0 0.1 2.5 96 0.2 N 7 9 4 5 1025.3 1025.4 0.0
29/05:30am 2.7 -0.6 2.2 96 0.2 NNW 9 11 5 6 1025.3 1025.4 0.0
29/05:07am 2.7 -1.0 2.2 96 0.2 NNW 11 13 6 7 1025.2 1025.3 0.0
29/05:00am 2.3 -1.1 1.8 96 0.2 NNW 9 11 5 6 1025.2 1025.3 0.0
29/04:47am 3.1 0.1 2.3 94 0.3 NNW 7 11 4 6 1025.2 1025.3 0.0
29/04:30am 3.2 0.3 2.7 96 0.2 NNW 7 9 4 5 1025.2 1025.3 0.0
29/04:00am 2.9 0.1 2.1 94 0.3 NNW 6 7 3 4 1025.2 1025.3 0.0
29/03:30am 3.5 0.3 3.0 97 0.2 NNW 9 11 5 6 1025.4 1025.5 0.0
29/03:00am 3.9 0.3 2.9 93 0.4 NNW 11 13 6 7 1025.5 1025.6 0.0
29/02:30am 4.3 1.2 3.6 95 0.3 NNW 9 13 5 7 1025.6 1025.7 0.0
29/02:00am 3.9 0.7 3.2 95 0.3 NNW 9 11 5 6 1025.8 1025.9 0.0
29/01:30am 4.0 0.5 3.3 95 0.3 NNW 11 15 6 8 1025.9 1026.0 0.0
29/01:00am 4.1 1.0 3.4 95 0.3 NNW 9 9 5 5 1026.1 1026.2 0.0
29/12:30am 3.3 0.5 1.8 90 0.6 N 6 7 3 4 1026.3 1026.4 0.0
29/12:00am 4.9 2.4 3.9 93 0.4 N 6 7 3 4 1026.4 1026.5 0.0
 
Date/Time
CST
Temp
°C
App
Temp
°C
Dew
Point
°C
Rel
Hum
%
Delta-T
°C
Wind Press
QNH
hPa
Press
MSL
hPa
Rain since
9am
mm
Dir  Spd
km/h
Gust
km/h
Spd
kts
Gust
kts
28/11:30pm 4.4 1.9 3.7 95 0.3 NNE 6 9 3 5 1026.6 1026.7 0.0
28/11:00pm 4.0 1.1 2.8 92 0.5 N 7 7 4 4 1026.7 1026.8 0.0
28/10:30pm 5.0 2.3 3.6 91 0.6 NNW 7 9 4 5 1026.7 1026.8 0.0
28/10:00pm 5.4 2.8 4.2 92 0.5 NW 7 11 4 6 1026.8 1026.9 0.0
28/09:30pm 7.4 4.6 5.1 85 1.0 NW 9 11 5 6 1026.8 1026.9 0.0
28/09:00pm 7.2 5.0 5.4 88 0.8 NNW 6 9 3 5 1026.8 1026.9 0.0
28/08:30pm 7.8 5.2 6.0 88 0.8 NNW 9 11 5 6 1026.9 1027.0 0.0
28/08:00pm 9.0 7.1 6.6 85 1.1 NE 6 7 3 4 1026.8 1026.9 0.0
28/07:30pm 10.0 7.1 6.3 78 1.7 N 11 15 6 8 1026.7 1026.8 0.0
28/07:00pm 10.6 7.7 6.3 75 2.0 NNW 11 17 6 9 1026.7 1026.8 0.0
28/06:30pm 11.5 8.5 6.1 69 2.5 N 11 13 6 7 1026.5 1026.6 0.0
28/06:00pm 12.1 9.5 6.1 67 2.8 NNW 9 13 5 7 1026.3 1026.4 0.0
28/05:30pm 12.7 10.1 5.9 63 3.2 NW 9 17 5 9 1026.0 1026.1 0.0
28/05:00pm 12.9 10.0 6.6 65 3.0 N 11 13 6 7 1025.9 1026.0 0.0
28/04:30pm 14.8 11.1 6.5 57 4.0 N 15 19 8 10 1025.9 1026.0 0.0
28/04:00pm 15.3 11.6 6.1 54 4.4 NW 15 22 8 12 1025.8 1025.9 0.0
28/03:30pm 15.8 11.0 5.8 51 4.8 NW 20 28 11 15 1025.7 1025.8 0.0
28/03:00pm 16.2 11.0 5.5 49 5.1 WNW 22 33 12 18 1025.7 1025.8 0.0
28/02:30pm 16.7 11.9 5.7 48 5.3 WNW 20 28 11 15 1025.7 1025.8 0.0
28/02:00pm 16.7 12.2 5.9 49 5.2 WNW 19 26 10 14 1025.7 1025.8 0.0
28/01:30pm 16.6 12.0 5.8 49 5.2 WNW 19 30 10 16 1025.9 1026.0 0.0
28/01:00pm 16.8 12.1 6.1 49 5.2 WNW 20 32 11 17 1026.1 1026.2 0.0
28/12:30pm 16.5 12.2 7.0 53 4.7 NW 19 28 10 15 1026.4 1026.5 0.0
28/12:00pm 16.4 12.2 7.3 55 4.5 NW 19 30 10 16 1026.6 1026.7 0.0
28/11:30am 15.5 11.1 7.6 59 3.9 WNW 20 30 11 16 1026.8 1026.9 0.0
28/11:00am 15.5 11.5 8.1 61 3.7 WNW 19 26 10 14 1026.8 1026.9 0.0
28/10:30am 14.8 10.5 8.0 64 3.4 WNW 20 32 11 17 1026.9 1027.0 0.0
28/10:00am 14.2 10.2 8.4 68 2.9 WNW 19 26 10 14 1026.9 1027.0 0.0
28/09:30am 13.4 10.2 8.4 72 2.5 WNW 15 20 8 11 1026.6 1026.7 0.0
28/09:00am 12.7 11.5 8.2 74 2.2 NW 4 15 2 8 1026.5 1026.6 0.2
28/08:30am 10.8 9.6 7.9 82 1.4 NW 4 11 2 6 1026.3 1026.4 0.2
28/08:00am 10.4 7.7 7.5 82 1.4 NW 11 15 6 8 1026.1 1026.2 0.2
28/07:30am 5.9 3.5 4.5 91 0.6 NW 6 9 3 5 1025.9 1026.0 0.2
28/07:00am 8.9 6.8 6.7 86 1.0 NW 7 9 4 5 1025.5 1025.6 0.2
28/06:30am 8.6 6.1 6.4 86 1.0 N 9 13 5 7 1024.9 1025.0 0.2
28/06:00am 8.6 6.8 7.1 90 0.7 NNE 6 9 3 5 1024.6 1024.7 0.2
28/05:30am 7.6 5.9 5.8 88 0.8 NNE 4 7 2 4 1024.5 1024.6 0.2
28/05:00am 8.9 6.9 7.0 88 0.9 NNW 7 11 4 6 1024.2 1024.3 0.2
28/04:30am 8.1 6.2 6.6 90 0.7 NNW 6 9 3 5 1024.0 1024.1 0.2
28/04:00am 6.2 3.9 4.6 89 0.7 N 6 9 3 5 1024.0 1024.1 0.2
28/03:30am 7.2 5.0 5.2 87 0.9 ESE 6 7 3 4 1024.0 1024.1 0.2
28/03:00am 4.7 2.2 3.7 93 0.4 ESE 6 7 3 4 1024.1 1024.2 0.2
28/02:30am 5.5 4.5 5.5 100 0.0 CALM 0 0 0 0 1024.1 1024.2 0.0
28/02:00am 4.3 2.9 3.6 95 0.3 CALM 0 6 0 3 1024.2 1024.3 0.0
28/01:30am 3.6 2.1 2.9 95 0.3 CALM 0 0 0 0 1023.9 1024.0 0.0
28/01:00am 5.5 3.5 4.3 92 0.5 N 4 6 2 3 1023.9 1024.0 0.0
28/12:30am 4.5 3.0 3.0 90 0.6 CALM 0 0 0 0 1023.9 1024.0 0.0
28/12:00am 7.1 4.8 5.8 91 0.6 N 7 9 4 5 1024.0 1024.1 0.0
 
Date/Time
CST
Temp
°C
App
Temp
°C
Dew
Point
°C
Rel
Hum
%
Delta-T
°C
Wind Press
QNH
hPa
Press
MSL
hPa
Rain since
9am
mm
Dir  Spd
km/h
Gust
km/h
Spd
kts
Gust
kts
27/11:30pm 5.7 3.2 4.5 92 0.5 N 7 9 4 5 1024.2 1024.3 0.0
27/11:00pm 8.8 5.9 6.4 85 1.1 WNW 11 13 6 7 1024.0 1024.1 0.0
27/10:30pm 6.4 3.9 4.8 89 0.7 NNW 7 9 4 5 1024.0 1024.1 0.0
27/10:00pm 5.8 2.8 4.1 89 0.7 NNW 9 9 5 5 1023.9 1024.0 0.0
27/09:30pm 6.0 3.0 4.1 88 0.8 NW 9 11 5 6 1023.9 1024.0 0.0
27/09:00pm 7.0 4.5 4.5 84 1.1 NW 7 9 4 5 1023.9 1024.0 0.0
27/08:30pm 7.7 4.8 4.5 80 1.4 NNW 9 13 5 7 1023.6 1023.7 0.0
27/08:00pm 7.7 4.8 4.5 80 1.4 NW 9 17 5 9 1023.5 1023.6 0.0
27/07:30pm 5.8 2.8 3.9 88 0.8 NNW 9 11 5 6 1023.3 1023.4 0.0
27/07:00pm 9.1 6.6 4.8 74 1.9 WNW 7 11 4 6 1023.1 1023.2 0.0
27/06:30pm 9.0 6.1 4.5 73 2.0 WNW 9 11 5 6 1022.7 1022.8 0.0
27/06:00pm 10.2 7.3 4.9 69 2.4 WNW 9 9 5 5 1022.4 1022.5 0.0
27/05:30pm 11.7 9.3 5.2 64 3.0 WNW 7 9 4 5 1022.2 1022.3 0.0
27/05:00pm 12.8 10.0 5.2 60 3.5 W 9 11 5 6 1021.8 1021.9 0.0
27/04:30pm 14.0 9.4 3.9 50 4.6 W 17 24 9 13 1021.5 1021.6 0.0
27/04:00pm 14.8 9.6 3.6 47 5.1 WSW 20 26 11 14 1021.2 1021.3 0.0
27/03:30pm 15.4 9.7 2.7 42 5.7 WSW 22 30 12 16 1020.9 1021.0 0.0
27/03:00pm 15.5 10.7 2.8 42 5.7 SW 17 26 9 14 1020.7 1020.7 0.0
27/02:30pm 15.0 9.5 2.1 41 5.7 WSW 20 28 11 15 1020.6 1020.6 0.0
27/02:00pm 15.7 10.5 2.5 41 5.9 W 19 26 10 14 1020.6 1020.6 0.0
27/01:30pm 15.1 9.7 4.6 49 4.9 SSW 22 30 12 16 1020.7 1020.7 0.0
27/01:00pm 15.4 10.4 4.4 48 5.1 W 20 30 11 16 1020.8 1020.8 0.0
27/12:30pm 15.1 9.1 3.4 45 5.3 WSW 24 30 13 16 1021.0 1021.1 0.0
27/12:00pm 14.8 9.2 3.6 47 5.1 WSW 22 30 12 16 1021.1 1021.2 0.0
27/11:30am 13.7 8.9 5.4 57 3.9 SW 20 28 11 15 1021.4 1021.5 0.0
27/11:00am 14.2 10.1 7.7 65 3.2 SW 19 26 10 14 1021.3 1021.4 0.0
27/10:30am 13.1 9.9 8.5 73 2.3 SW 15 20 8 11 1021.3 1021.4 0.0
27/10:00am 13.4 9.8 9.7 78 1.9 WSW 19 20 10 11 1021.1 1021.2 0.0
27/09:30am 12.3 9.3 9.3 82 1.5 W 15 20 8 11 1020.9 1021.0 0.0
27/09:00am 10.9 7.3 8.5 85 1.2 W 17 20 9 11 1020.5 1020.5 0.0
27/08:30am 10.5 6.9 8.5 87 1.0 W 17 20 9 11 1020.2 1020.2 0.0
27/08:00am 9.6 6.7 8.1 90 0.7 W 13 17 7 9 1019.8 1019.8 0.0
27/07:30am 9.8 6.2 8.4 91 0.7 W 17 20 9 11 1019.4 1019.4 0.0

Other Formats:

Comma delimited format used in spreadsheet applications
http://www.bom.gov.au/fwo/IDS60801/IDS60801.95818.axf

JavaScript Object Notation format (JSON) in row-major order
http://www.bom.gov.au/fwo/IDS60801/IDS60801.95818.json